Allen Army Airfield Delta Junction Ft Greely US
ICAO: PABI
IATA:
Category: Medium
Scheduled Services:

Elevation: 1291 ft
TransAlt. 18000 ft.

Airport Communications:
ASOS:135.65
ATIS:132.075
TWEB:114.9
ANCHORAGE CNTR:135.3
CTAF:122.9
FAIRBANKS RDO:122.2
FORT GREELY GND:118.225
FT GREELY RANGE CON:38.3
BASE OPS:122.9
TWR:125.325

PABI Zoom In..

If you have problems with the map follow the link
https://www.worldairports.se/pages/airport.php?
ICAO=PABI

Runways:

(A) RW 01 length 9000 ft width 150 ft
---- / hdg 7

(B) RW 07 length 4077 ft width 90 ft
---- / hdg 69

(C) RW 10 length 6115 ft width 150 ft
ILS 111.10 / hdg 102

(D) RW 19 length 9000 ft width 150 ft
---- / hdg 187

(E) RW 25 length 4077 ft width 90 ft
---- / hdg 249

(F) RW 28 length 6115 ft width 150 ft
---- / hdg 282

Location; PABI
Day. 18 / Time. 23.53 Zulu
* Altimeter: 29.89
* Temperature: 11° c. 51.8°f.
* Wind from: 180° Speed 23 kn with Gusts up to 30 kn.
Dewpoint: -02° c.
Visibility: 10 Statute Miles.
Clouds: Scattered 7000 ft.
Clouds: Scattered 12000 ft.
Clouds: Broken 2000 ft.

PABI 182353Z 18023G30KT 10SM SCT070 SCT120 BKN200 11/M02 A2989 RMK AO2 PK WND 19030/2353 SLP132 ACSL DSNT S-W T01061017 10106 20011 58005


Wind From 180°
Speed 23 kn.

 
 
jpsmedia.com for Web Design worldairports.se 2018   terms of use